0AK7 weather

Public forecast

Using degrees Fahrenheit for public forecast. Weather courtesy of forecast.io.

Closest aviation weather report (METAR) to Bradley Lake Hydroelectri Project Airstrip

Report is more than 2 hours old.

Closest report is Homer Airport, 17.5 nm (32.5 km) WSW. Retrieved 2020/08/10 03:47 UTC (4 hours ago):

PAHO 100347Z 24009KT 10SM CLR 14/10 A2970 RMK A02 SLP059 T01440100

Closest aviation forecast (TAF) to Bradley Lake Hydroelectri Project Airstrip

Closest forecast is Homer Airport, 17.5 nm (32.5 km) WSW. Retrieved 2020/08/10 06:36 UTC (51 minutes ago):

TAF PAHO 100534Z 1006/1106 25008KT P6SM SCT100